sensor_id;sensor_type;location;lat;lon;timestamp;P1;durP1;ratioP1;P2;durP2;ratioP2
70814;SDS011;58428;49.478;10.986;2023-07-20T00:03:19;6.20;;;3.30;;
70814;SDS011;58428;49.478;10.986;2023-07-20T00:05:49;7.20;;;3.97;;
70814;SDS011;58428;49.478;10.986;2023-07-20T00:08:15;6.20;;;3.50;;
70814;SDS011;58428;49.478;10.986;2023-07-20T00:10:42;7.07;;;3.90;;
70814;SDS011;58428;49.478;10.986;2023-07-20T00:13:08;7.68;;;3.88;;
70814;SDS011;58428;49.478;10.986;2023-07-20T00:15:34;6.32;;;3.47;;
70814;SDS011;58428;49.478;10.986;2023-07-20T00:18:00;5.45;;;3.40;;
70814;SDS011;58428;49.478;10.986;2023-07-20T00:20:26;7.57;;;3.55;;
70814;SDS011;58428;49.478;10.986;2023-07-20T00:22:51;6.18;;;3.42;;
70814;SDS011;58428;49.478;10.986;2023-07-20T00:25:17;6.47;;;3.75;;
70814;SDS011;58428;49.478;10.986;2023-07-20T00:27:43;5.85;;;3.30;;
70814;SDS011;58428;49.478;10.986;2023-07-20T00:30:11;6.05;;;3.38;;
70814;SDS011;58428;49.478;10.986;2023-07-20T00:35:02;6.83;;;3.30;;
70814;SDS011;58428;49.478;10.986;2023-07-20T00:37:28;5.93;;;3.28;;
70814;SDS011;58428;49.478;10.986;2023-07-20T00:39:54;6.65;;;3.28;;
70814;SDS011;58428;49.478;10.986;2023-07-20T00:44:47;6.22;;;3.15;;
70814;SDS011;58428;49.478;10.986;2023-07-20T00:47:14;7.28;;;3.60;;
70814;SDS011;58428;49.478;10.986;2023-07-20T00:49:41;6.78;;;4.00;;
70814;SDS011;58428;49.478;10.986;2023-07-20T00:52:08;7.55;;;3.63;;
70814;SDS011;58428;49.478;10.986;2023-07-20T00:54:37;9.18;;;3.97;;
70814;SDS011;58428;49.478;10.986;2023-07-20T00:57:03;9.40;;;4.10;;
70814;SDS011;58428;49.478;10.986;2023-07-20T00:59:31;7.53;;;3.38;;
70814;SDS011;58428;49.478;10.986;2023-07-20T01:01:59;6.13;;;3.63;;
70814;SDS011;58428;49.478;10.986;2023-07-20T01:04:25;6.55;;;3.60;;
70814;SDS011;58428;49.478;10.986;2023-07-20T01:06:57;8.27;;;4.45;;
70814;SDS011;58428;49.478;10.986;2023-07-20T01:09:44;7.18;;;3.80;;
70814;SDS011;58428;49.478;10.986;2023-07-20T01:14:53;7.47;;;3.83;;
70814;SDS011;58428;49.478;10.986;2023-07-20T01:17:19;8.40;;;3.80;;
70814;SDS011;58428;49.478;10.986;2023-07-20T01:19:45;6.30;;;3.53;;
70814;SDS011;58428;49.478;10.986;2023-07-20T01:31:25;8.45;;;3.70;;
70814;SDS011;58428;49.478;10.986;2023-07-20T01:33:58;6.75;;;3.92;;
70814;SDS011;58428;49.478;10.986;2023-07-20T01:36:26;7.15;;;3.78;;
70814;SDS011;58428;49.478;10.986;2023-07-20T01:38:54;8.75;;;4.07;;
70814;SDS011;58428;49.478;10.986;2023-07-20T01:41:21;6.10;;;3.50;;
70814;SDS011;58428;49.478;10.986;2023-07-20T01:43:47;6.90;;;4.00;;
70814;SDS011;58428;49.478;10.986;2023-07-20T01:46:13;8.18;;;4.25;;
70814;SDS011;58428;49.478;10.986;2023-07-20T01:48:39;8.77;;;4.70;;
70814;SDS011;58428;49.478;10.986;2023-07-20T01:51:06;12.63;;;7.05;;
70814;SDS011;58428;49.478;10.986;2023-07-20T01:53:32;9.07;;;4.80;;
70814;SDS011;58428;49.478;10.986;2023-07-20T01:58:23;7.03;;;4.43;;
70814;SDS011;58428;49.478;10.986;2023-07-20T02:00:52;7.45;;;4.35;;
70814;SDS011;58428;49.478;10.986;2023-07-20T02:03:18;9.15;;;4.85;;
70814;SDS011;58428;49.478;10.986;2023-07-20T02:05:51;8.70;;;5.32;;
70814;SDS011;58428;49.478;10.986;2023-07-20T02:08:17;8.93;;;5.43;;
70814;SDS011;58428;49.478;10.986;2023-07-20T02:10:47;8.25;;;4.97;;
70814;SDS011;58428;49.478;10.986;2023-07-20T02:13:13;10.38;;;5.47;;
70814;SDS011;58428;49.478;10.986;2023-07-20T02:18:05;9.40;;;4.90;;
70814;SDS011;58428;49.478;10.986;2023-07-20T02:22:56;7.17;;;4.60;;
70814;SDS011;58428;49.478;10.986;2023-07-20T02:27:46;9.80;;;3.83;;
70814;SDS011;58428;49.478;10.986;2023-07-20T02:30:12;11.93;;;4.78;;
70814;SDS011;58428;49.478;10.986;2023-07-20T02:35:05;9.80;;;4.60;;
70814;SDS011;58428;49.478;10.986;2023-07-20T02:37:31;7.50;;;3.70;;
70814;SDS011;58428;49.478;10.986;2023-07-20T02:39:57;11.18;;;4.40;;
70814;SDS011;58428;49.478;10.986;2023-07-20T02:44:50;7.70;;;4.22;;
70814;SDS011;58428;49.478;10.986;2023-07-20T02:49:44;8.32;;;4.63;;
70814;SDS011;58428;49.478;10.986;2023-07-20T02:52:09;9.13;;;4.18;;
70814;SDS011;58428;49.478;10.986;2023-07-20T02:57:00;9.23;;;4.70;;
70814;SDS011;58428;49.478;10.986;2023-07-20T02:59:26;8.93;;;4.85;;
70814;SDS011;58428;49.478;10.986;2023-07-20T03:04:18;8.10;;;4.47;;
70814;SDS011;58428;49.478;10.986;2023-07-20T03:06:44;6.68;;;4.07;;
70814;SDS011;58428;49.478;10.986;2023-07-20T03:11:36;9.23;;;4.90;;
70814;SDS011;58428;49.478;10.986;2023-07-20T03:14:02;10.02;;;4.65;;
70814;SDS011;58428;49.478;10.986;2023-07-20T03:18:52;7.40;;;4.87;;
70814;SDS011;58428;49.478;10.986;2023-07-20T03:21:19;10.25;;;5.20;;
70814;SDS011;58428;49.478;10.986;2023-07-20T03:26:11;6.32;;;3.70;;
70814;SDS011;58428;49.478;10.986;2023-07-20T03:31:03;8.60;;;4.68;;
70814;SDS011;58428;49.478;10.986;2023-07-20T03:33:29;9.40;;;5.03;;
70814;SDS011;58428;49.478;10.986;2023-07-20T03:35:59;6.35;;;3.83;;
70814;SDS011;58428;49.478;10.986;2023-07-20T03:38:25;9.55;;;4.05;;
70814;SDS011;58428;49.478;10.986;2023-07-20T03:40:54;8.60;;;4.13;;
70814;SDS011;58428;49.478;10.986;2023-07-20T03:43:21;6.78;;;4.00;;
70814;SDS011;58428;49.478;10.986;2023-07-20T03:45:48;7.07;;;3.78;;
70814;SDS011;58428;49.478;10.986;2023-07-20T03:48:18;9.15;;;3.95;;
70814;SDS011;58428;49.478;10.986;2023-07-20T03:50:45;6.88;;;3.80;;
70814;SDS011;58428;49.478;10.986;2023-07-20T03:53:12;8.52;;;3.92;;
70814;SDS011;58428;49.478;10.986;2023-07-20T03:55:39;8.50;;;4.10;;
70814;SDS011;58428;49.478;10.986;2023-07-20T03:58:06;10.43;;;3.70;;
70814;SDS011;58428;49.478;10.986;2023-07-20T04:00:32;6.78;;;3.50;;
70814;SDS011;58428;49.478;10.986;2023-07-20T04:05:25;8.98;;;3.40;;
70814;SDS011;58428;49.478;10.986;2023-07-20T04:10:17;8.45;;;3.70;;
70814;SDS011;58428;49.478;10.986;2023-07-20T04:12:43;7.65;;;3.63;;
70814;SDS011;58428;49.478;10.986;2023-07-20T04:15:10;7.28;;;3.97;;
70814;SDS011;58428;49.478;10.986;2023-07-20T04:17:38;7.88;;;3.97;;
70814;SDS011;58428;49.478;10.986;2023-07-20T04:22:30;7.57;;;4.25;;
70814;SDS011;58428;49.478;10.986;2023-07-20T04:27:21;9.68;;;4.10;;
70814;SDS011;58428;49.478;10.986;2023-07-20T04:32:12;8.43;;;3.67;;
70814;SDS011;58428;49.478;10.986;2023-07-20T04:37:05;7.95;;;3.58;;
70814;SDS011;58428;49.478;10.986;2023-07-20T04:41:57;6.95;;;3.83;;
70814;SDS011;58428;49.478;10.986;2023-07-20T04:46:48;8.98;;;4.03;;
70814;SDS011;58428;49.478;10.986;2023-07-20T04:51:39;7.00;;;3.90;;
70814;SDS011;58428;49.478;10.986;2023-07-20T04:54:04;7.85;;;3.08;;
70814;SDS011;58428;49.478;10.986;2023-07-20T04:58:55;6.90;;;3.63;;
70814;SDS011;58428;49.478;10.986;2023-07-20T05:01:22;9.23;;;4.15;;
70814;SDS011;58428;49.478;10.986;2023-07-20T05:03:48;8.20;;;3.67;;
70814;SDS011;58428;49.478;10.986;2023-07-20T05:06:15;6.43;;;3.60;;
70814;SDS011;58428;49.478;10.986;2023-07-20T05:11:07;6.55;;;3.92;;
70814;SDS011;58428;49.478;10.986;2023-07-20T05:13:32;7.93;;;3.50;;
70814;SDS011;58428;49.478;10.986;2023-07-20T05:15:58;7.05;;;3.45;;
70814;SDS011;58428;49.478;10.986;2023-07-20T05:20:49;6.75;;;3.70;;
70814;SDS011;58428;49.478;10.986;2023-07-20T05:25:42;9.20;;;3.72;;
70814;SDS011;58428;49.478;10.986;2023-07-20T05:30:33;7.95;;;3.35;;
70814;SDS011;58428;49.478;10.986;2023-07-20T05:35:25;5.88;;;3.10;;
70814;SDS011;58428;49.478;10.986;2023-07-20T05:37:51;8.73;;;3.60;;
70814;SDS011;58428;49.478;10.986;2023-07-20T05:42:48;9.40;;;3.72;;
70814;SDS011;58428;49.478;10.986;2023-07-20T05:45:16;6.50;;;3.38;;
70814;SDS011;58428;49.478;10.986;2023-07-20T05:47:42;8.10;;;3.38;;
70814;SDS011;58428;49.478;10.986;2023-07-20T05:52:34;7.32;;;3.42;;
70814;SDS011;58428;49.478;10.986;2023-07-20T05:54:59;5.88;;;3.08;;
70814;SDS011;58428;49.478;10.986;2023-07-20T05:59:50;6.80;;;3.07;;
70814;SDS011;58428;49.478;10.986;2023-07-20T06:04:41;6.13;;;3.10;;
70814;SDS011;58428;49.478;10.986;2023-07-20T06:07:07;6.90;;;3.10;;
70814;SDS011;58428;49.478;10.986;2023-07-20T06:09:34;6.65;;;3.38;;
70814;SDS011;58428;49.478;10.986;2023-07-20T06:12:00;4.95;;;2.88;;
70814;SDS011;58428;49.478;10.986;2023-07-20T06:14:26;5.90;;;3.20;;
70814;SDS011;58428;49.478;10.986;2023-07-20T06:16:52;8.02;;;3.13;;
70814;SDS011;58428;49.478;10.986;2023-07-20T06:21:43;6.47;;;3.40;;
70814;SDS011;58428;49.478;10.986;2023-07-20T06:24:08;12.50;;;3.70;;
70814;SDS011;58428;49.478;10.986;2023-07-20T06:26:34;9.43;;;3.38;;
70814;SDS011;58428;49.478;10.986;2023-07-20T06:29:07;7.75;;;3.15;;
70814;SDS011;58428;49.478;10.986;2023-07-20T06:31:34;5.72;;;2.97;;
70814;SDS011;58428;49.478;10.986;2023-07-20T06:34:00;7.30;;;2.65;;
70814;SDS011;58428;49.478;10.986;2023-07-20T06:36:26;6.47;;;3.05;;
70814;SDS011;58428;49.478;10.986;2023-07-20T06:38:52;7.78;;;3.30;;
70814;SDS011;58428;49.478;10.986;2023-07-20T06:41:18;5.78;;;2.90;;
70814;SDS011;58428;49.478;10.986;2023-07-20T06:43:44;6.45;;;3.05;;
70814;SDS011;58428;49.478;10.986;2023-07-20T06:46:10;5.30;;;2.80;;
70814;SDS011;58428;49.478;10.986;2023-07-20T06:48:35;5.78;;;2.70;;
70814;SDS011;58428;49.478;10.986;2023-07-20T06:51:00;13.80;;;4.10;;
70814;SDS011;58428;49.478;10.986;2023-07-20T06:53:26;6.90;;;3.00;;
70814;SDS011;58428;49.478;10.986;2023-07-20T06:55:51;6.45;;;3.05;;
70814;SDS011;58428;49.478;10.986;2023-07-20T06:58:17;5.18;;;2.42;;
70814;SDS011;58428;49.478;10.986;2023-07-20T07:00:43;12.25;;;6.28;;
70814;SDS011;58428;49.478;10.986;2023-07-20T07:03:09;6.00;;;3.00;;
70814;SDS011;58428;49.478;10.986;2023-07-20T07:05:36;10.07;;;3.40;;
70814;SDS011;58428;49.478;10.986;2023-07-20T07:08:03;8.35;;;4.50;;
70814;SDS011;58428;49.478;10.986;2023-07-20T07:10:31;7.45;;;4.18;;
70814;SDS011;58428;49.478;10.986;2023-07-20T07:12:57;7.03;;;3.58;;
70814;SDS011;58428;49.478;10.986;2023-07-20T07:15:22;7.70;;;3.63;;
70814;SDS011;58428;49.478;10.986;2023-07-20T07:17:48;5.57;;;2.80;;
70814;SDS011;58428;49.478;10.986;2023-07-20T07:20:13;6.90;;;2.50;;
70814;SDS011;58428;49.478;10.986;2023-07-20T07:22:39;5.50;;;2.58;;
70814;SDS011;58428;49.478;10.986;2023-07-20T07:25:05;5.90;;;2.70;;
70814;SDS011;58428;49.478;10.986;2023-07-20T07:27:34;9.88;;;3.80;;
70814;SDS011;58428;49.478;10.986;2023-07-20T07:30:00;7.00;;;3.10;;
70814;SDS011;58428;49.478;10.986;2023-07-20T07:32:26;8.43;;;3.40;;
70814;SDS011;58428;49.478;10.986;2023-07-20T07:34:51;6.53;;;3.45;;
70814;SDS011;58428;49.478;10.986;2023-07-20T07:37:17;5.75;;;2.80;;
70814;SDS011;58428;49.478;10.986;2023-07-20T07:39:46;5.65;;;2.35;;
70814;SDS011;58428;49.478;10.986;2023-07-20T07:42:11;6.32;;;2.50;;
70814;SDS011;58428;49.478;10.986;2023-07-20T07:44:38;5.93;;;2.30;;
70814;SDS011;58428;49.478;10.986;2023-07-20T07:47:03;4.43;;;2.25;;
70814;SDS011;58428;49.478;10.986;2023-07-20T07:49:29;5.03;;;2.35;;
70814;SDS011;58428;49.478;10.986;2023-07-20T07:51:56;3.70;;;2.20;;
70814;SDS011;58428;49.478;10.986;2023-07-20T07:54:22;4.05;;;2.05;;
70814;SDS011;58428;49.478;10.986;2023-07-20T07:56:47;7.03;;;2.58;;
70814;SDS011;58428;49.478;10.986;2023-07-20T07:59:13;6.75;;;2.30;;
70814;SDS011;58428;49.478;10.986;2023-07-20T08:01:38;5.10;;;2.38;;
70814;SDS011;58428;49.478;10.986;2023-07-20T08:04:04;5.22;;;2.33;;
70814;SDS011;58428;49.478;10.986;2023-07-20T08:06:35;4.18;;;1.95;;
70814;SDS011;58428;49.478;10.986;2023-07-20T08:09:02;4.95;;;2.20;;
70814;SDS011;58428;49.478;10.986;2023-07-20T08:11:28;4.70;;;2.33;;
70814;SDS011;58428;49.478;10.986;2023-07-20T08:13:57;7.50;;;2.80;;
70814;SDS011;58428;49.478;10.986;2023-07-20T08:16:22;6.65;;;2.30;;
70814;SDS011;58428;49.478;10.986;2023-07-20T08:18:47;5.25;;;2.38;;
70814;SDS011;58428;49.478;10.986;2023-07-20T08:21:13;4.85;;;1.90;;
70814;SDS011;58428;49.478;10.986;2023-07-20T08:23:38;6.07;;;2.00;;
70814;SDS011;58428;49.478;10.986;2023-07-20T08:26:04;4.10;;;1.70;;
70814;SDS011;58428;49.478;10.986;2023-07-20T08:28:29;3.67;;;2.00;;
70814;SDS011;58428;49.478;10.986;2023-07-20T08:30:57;3.78;;;2.00;;
70814;SDS011;58428;49.478;10.986;2023-07-20T08:33:23;5.60;;;2.50;;
70814;SDS011;58428;49.478;10.986;2023-07-20T08:35:49;4.25;;;2.00;;
70814;SDS011;58428;49.478;10.986;2023-07-20T08:38:14;5.70;;;2.53;;
70814;SDS011;58428;49.478;10.986;2023-07-20T08:40:40;3.80;;;1.90;;
70814;SDS011;58428;49.478;10.986;2023-07-20T08:43:08;4.78;;;1.90;;
70814;SDS011;58428;49.478;10.986;2023-07-20T08:45:35;4.55;;;1.85;;
70814;SDS011;58428;49.478;10.986;2023-07-20T08:48:03;4.78;;;1.80;;
70814;SDS011;58428;49.478;10.986;2023-07-20T08:50:33;6.75;;;1.90;;
70814;SDS011;58428;49.478;10.986;2023-07-20T08:53:00;3.83;;;1.80;;
70814;SDS011;58428;49.478;10.986;2023-07-20T08:55:28;4.05;;;1.75;;
70814;SDS011;58428;49.478;10.986;2023-07-20T08:57:54;3.55;;;1.77;;
70814;SDS011;58428;49.478;10.986;2023-07-20T09:00:22;2.83;;;1.70;;
70814;SDS011;58428;49.478;10.986;2023-07-20T09:02:49;3.38;;;1.83;;
70814;SDS011;58428;49.478;10.986;2023-07-20T09:05:16;4.05;;;1.80;;
70814;SDS011;58428;49.478;10.986;2023-07-20T09:07:42;4.28;;;2.00;;
70814;SDS011;58428;49.478;10.986;2023-07-20T09:10:08;3.72;;;1.70;;
70814;SDS011;58428;49.478;10.986;2023-07-20T09:12:40;3.85;;;1.90;;
70814;SDS011;58428;49.478;10.986;2023-07-20T09:15:08;3.60;;;1.75;;
70814;SDS011;58428;49.478;10.986;2023-07-20T09:17:37;2.83;;;1.60;;
70814;SDS011;58428;49.478;10.986;2023-07-20T09:20:03;3.42;;;1.92;;
70814;SDS011;58428;49.478;10.986;2023-07-20T09:22:33;3.08;;;1.55;;
70814;SDS011;58428;49.478;10.986;2023-07-20T09:25:00;3.58;;;1.42;;
70814;SDS011;58428;49.478;10.986;2023-07-20T09:27:39;4.05;;;1.65;;
70814;SDS011;58428;49.478;10.986;2023-07-20T09:30:06;4.57;;;1.70;;
70814;SDS011;58428;49.478;10.986;2023-07-20T09:32:39;3.10;;;1.88;;
70814;SDS011;58428;49.478;10.986;2023-07-20T09:35:11;6.63;;;1.90;;
70814;SDS011;58428;49.478;10.986;2023-07-20T09:38:01;5.05;;;1.73;;
70814;SDS011;58428;49.478;10.986;2023-07-20T09:40:28;3.75;;;1.50;;
70814;SDS011;58428;49.478;10.986;2023-07-20T09:42:54;3.00;;;1.45;;
70814;SDS011;58428;49.478;10.986;2023-07-20T09:45:28;3.13;;;1.73;;
70814;SDS011;58428;49.478;10.986;2023-07-20T09:48:05;2.75;;;1.42;;
70814;SDS011;58428;49.478;10.986;2023-07-20T09:50:32;5.03;;;1.70;;
70814;SDS011;58428;49.478;10.986;2023-07-20T09:53:00;1.90;;;1.30;;
70814;SDS011;58428;49.478;10.986;2023-07-20T09:55:27;4.28;;;1.40;;
70814;SDS011;58428;49.478;10.986;2023-07-20T09:57:55;2.20;;;1.40;;
70814;SDS011;58428;49.478;10.986;2023-07-20T10:00:21;3.75;;;1.60;;
70814;SDS011;58428;49.478;10.986;2023-07-20T10:02:47;2.50;;;1.50;;
70814;SDS011;58428;49.478;10.986;2023-07-20T10:05:17;3.20;;;1.52;;
70814;SDS011;58428;49.478;10.986;2023-07-20T10:07:47;2.90;;;1.33;;
70814;SDS011;58428;49.478;10.986;2023-07-20T10:10:15;1.73;;;1.30;;
70814;SDS011;58428;49.478;10.986;2023-07-20T10:12:43;2.53;;;1.35;;
70814;SDS011;58428;49.478;10.986;2023-07-20T10:15:14;3.28;;;1.40;;
70814;SDS011;58428;49.478;10.986;2023-07-20T10:18:31;4.30;;;1.50;;
70814;SDS011;58428;49.478;10.986;2023-07-20T10:20:51;2.58;;;1.40;;
70814;SDS011;58428;49.478;10.986;2023-07-20T10:23:19;3.45;;;1.40;;
70814;SDS011;58428;49.478;10.986;2023-07-20T10:25:44;3.47;;;1.40;;
70814;SDS011;58428;49.478;10.986;2023-07-20T10:28:11;3.38;;;1.30;;
70814;SDS011;58428;49.478;10.986;2023-07-20T10:30:38;2.00;;;1.20;;
70814;SDS011;58428;49.478;10.986;2023-07-20T10:33:04;2.97;;;1.40;;
70814;SDS011;58428;49.478;10.986;2023-07-20T10:35:50;2.80;;;1.50;;
70814;SDS011;58428;49.478;10.986;2023-07-20T10:38:20;2.22;;;1.30;;
70814;SDS011;58428;49.478;10.986;2023-07-20T10:41:03;2.00;;;1.23;;
70814;SDS011;58428;49.478;10.986;2023-07-20T10:43:28;2.67;;;1.50;;
70814;SDS011;58428;49.478;10.986;2023-07-20T10:45:54;3.65;;;1.40;;
70814;SDS011;58428;49.478;10.986;2023-07-20T10:51:12;3.90;;;1.40;;
70814;SDS011;58428;49.478;10.986;2023-07-20T10:53:41;3.03;;;1.50;;
70814;SDS011;58428;49.478;10.986;2023-07-20T10:56:11;2.35;;;1.30;;
70814;SDS011;58428;49.478;10.986;2023-07-20T10:58:38;1.58;;;1.10;;
70814;SDS011;58428;49.478;10.986;2023-07-20T11:01:07;3.28;;;1.42;;
70814;SDS011;58428;49.478;10.986;2023-07-20T11:03:34;2.42;;;1.30;;
70814;SDS011;58428;49.478;10.986;2023-07-20T11:08:57;1.65;;;1.10;;
70814;SDS011;58428;49.478;10.986;2023-07-20T11:11:28;2.95;;;1.30;;
70814;SDS011;58428;49.478;10.986;2023-07-20T11:16:39;2.65;;;1.30;;
70814;SDS011;58428;49.478;10.986;2023-07-20T11:19:16;2.72;;;1.30;;
70814;SDS011;58428;49.478;10.986;2023-07-20T11:21:44;2.63;;;1.27;;
70814;SDS011;58428;49.478;10.986;2023-07-20T11:24:11;1.88;;;1.30;;
70814;SDS011;58428;49.478;10.986;2023-07-20T11:26:43;1.65;;;1.20;;
70814;SDS011;58428;49.478;10.986;2023-07-20T11:29:10;2.67;;;1.35;;
70814;SDS011;58428;49.478;10.986;2023-07-20T11:31:40;2.70;;;1.15;;
70814;SDS011;58428;49.478;10.986;2023-07-20T11:34:09;2.45;;;1.30;;
70814;SDS011;58428;49.478;10.986;2023-07-20T11:36:40;3.42;;;1.30;;
70814;SDS011;58428;49.478;10.986;2023-07-20T11:39:10;2.65;;;1.20;;
70814;SDS011;58428;49.478;10.986;2023-07-20T11:41:36;3.92;;;1.50;;
70814;SDS011;58428;49.478;10.986;2023-07-20T11:44:03;1.55;;;1.02;;
70814;SDS011;58428;49.478;10.986;2023-07-20T11:46:31;2.95;;;1.30;;
70814;SDS011;58428;49.478;10.986;2023-07-20T11:48:58;1.40;;;1.10;;
70814;SDS011;58428;49.478;10.986;2023-07-20T11:51:25;2.40;;;1.30;;
70814;SDS011;58428;49.478;10.986;2023-07-20T11:53:52;3.38;;;1.13;;
70814;SDS011;58428;49.478;10.986;2023-07-20T11:56:18;2.40;;;1.00;;
70814;SDS011;58428;49.478;10.986;2023-07-20T11:58:45;1.55;;;1.02;;
70814;SDS011;58428;49.478;10.986;2023-07-20T12:01:14;1.92;;;1.15;;
70814;SDS011;58428;49.478;10.986;2023-07-20T12:03:43;1.60;;;1.10;;
70814;SDS011;58428;49.478;10.986;2023-07-20T12:06:09;1.63;;;1.13;;
70814;SDS011;58428;49.478;10.986;2023-07-20T12:08:43;2.72;;;1.33;;
70814;SDS011;58428;49.478;10.986;2023-07-20T12:11:09;2.35;;;1.10;;
70814;SDS011;58428;49.478;10.986;2023-07-20T12:13:40;1.65;;;1.08;;
70814;SDS011;58428;49.478;10.986;2023-07-20T12:16:10;1.67;;;1.13;;
70814;SDS011;58428;49.478;10.986;2023-07-20T12:18:38;1.85;;;1.20;;
70814;SDS011;58428;49.478;10.986;2023-07-20T12:21:05;2.47;;;1.27;;
70814;SDS011;58428;49.478;10.986;2023-07-20T12:23:39;2.03;;;1.20;;
70814;SDS011;58428;49.478;10.986;2023-07-20T12:26:07;1.95;;;1.30;;
70814;SDS011;58428;49.478;10.986;2023-07-20T12:28:43;2.20;;;1.13;;
70814;SDS011;58428;49.478;10.986;2023-07-20T12:31:09;1.60;;;1.20;;
70814;SDS011;58428;49.478;10.986;2023-07-20T12:33:37;3.08;;;1.30;;
70814;SDS011;58428;49.478;10.986;2023-07-20T12:36:03;2.20;;;1.20;;
70814;SDS011;58428;49.478;10.986;2023-07-20T12:38:30;4.32;;;1.20;;
70814;SDS011;58428;49.478;10.986;2023-07-20T12:40:59;2.03;;;1.20;;
70814;SDS011;58428;49.478;10.986;2023-07-20T12:43:25;2.22;;;1.20;;
70814;SDS011;58428;49.478;10.986;2023-07-20T12:45:51;4.03;;;1.38;;
70814;SDS011;58428;49.478;10.986;2023-07-20T12:48:17;1.98;;;1.15;;
70814;SDS011;58428;49.478;10.986;2023-07-20T12:50:43;2.88;;;1.30;;
70814;SDS011;58428;49.478;10.986;2023-07-20T12:53:08;2.40;;;1.38;;
70814;SDS011;58428;49.478;10.986;2023-07-20T12:55:34;2.58;;;1.23;;
70814;SDS011;58428;49.478;10.986;2023-07-20T12:58:00;3.70;;;1.33;;
70814;SDS011;58428;49.478;10.986;2023-07-20T13:00:26;2.20;;;1.40;;
70814;SDS011;58428;49.478;10.986;2023-07-20T13:02:51;2.10;;;1.25;;
70814;SDS011;58428;49.478;10.986;2023-07-20T13:05:17;1.45;;;1.13;;
70814;SDS011;58428;49.478;10.986;2023-07-20T13:07:43;2.28;;;1.35;;
70814;SDS011;58428;49.478;10.986;2023-07-20T13:10:08;2.95;;;1.38;;
70814;SDS011;58428;49.478;10.986;2023-07-20T13:12:35;2.10;;;1.20;;
70814;SDS011;58428;49.478;10.986;2023-07-20T13:15:05;2.20;;;1.30;;
70814;SDS011;58428;49.478;10.986;2023-07-20T13:17:32;2.35;;;1.40;;
70814;SDS011;58428;49.478;10.986;2023-07-20T13:20:00;1.85;;;1.27;;
70814;SDS011;58428;49.478;10.986;2023-07-20T13:22:25;3.92;;;1.40;;
70814;SDS011;58428;49.478;10.986;2023-07-20T13:24:52;2.65;;;1.23;;
70814;SDS011;58428;49.478;10.986;2023-07-20T13:27:17;1.95;;;1.15;;
70814;SDS011;58428;49.478;10.986;2023-07-20T13:29:44;2.13;;;1.30;;
70814;SDS011;58428;49.478;10.986;2023-07-20T13:32:12;2.85;;;1.27;;
70814;SDS011;58428;49.478;10.986;2023-07-20T13:34:40;3.05;;;1.40;;
70814;SDS011;58428;49.478;10.986;2023-07-20T13:37:05;2.70;;;1.92;;
70814;SDS011;58428;49.478;10.986;2023-07-20T13:39:31;3.30;;;1.40;;
70814;SDS011;58428;49.478;10.986;2023-07-20T13:41:57;1.98;;;1.33;;
70814;SDS011;58428;49.478;10.986;2023-07-20T13:44:22;3.80;;;1.50;;
70814;SDS011;58428;49.478;10.986;2023-07-20T13:46:48;3.15;;;1.48;;
70814;SDS011;58428;49.478;10.986;2023-07-20T13:49:15;3.00;;;1.30;;
70814;SDS011;58428;49.478;10.986;2023-07-20T13:51:41;2.25;;;1.30;;
70814;SDS011;58428;49.478;10.986;2023-07-20T13:54:07;2.00;;;1.17;;
70814;SDS011;58428;49.478;10.986;2023-07-20T13:56:33;2.50;;;1.30;;
70814;SDS011;58428;49.478;10.986;2023-07-20T13:58:58;5.43;;;4.18;;
70814;SDS011;58428;49.478;10.986;2023-07-20T14:01:25;14.73;;;10.05;;
70814;SDS011;58428;49.478;10.986;2023-07-20T14:03:53;5.50;;;2.50;;
70814;SDS011;58428;49.478;10.986;2023-07-20T14:06:19;2.67;;;1.50;;
70814;SDS011;58428;49.478;10.986;2023-07-20T14:08:44;3.40;;;1.42;;
70814;SDS011;58428;49.478;10.986;2023-07-20T14:11:14;3.88;;;1.48;;
70814;SDS011;58428;49.478;10.986;2023-07-20T14:13:39;2.58;;;1.40;;
70814;SDS011;58428;49.478;10.986;2023-07-20T14:16:05;2.88;;;1.30;;
70814;SDS011;58428;49.478;10.986;2023-07-20T14:18:30;8.30;;;6.43;;
70814;SDS011;58428;49.478;10.986;2023-07-20T14:20:56;13.50;;;10.27;;
70814;SDS011;58428;49.478;10.986;2023-07-20T14:23:21;2.70;;;1.83;;
70814;SDS011;58428;49.478;10.986;2023-07-20T14:25:49;4.38;;;1.40;;
70814;SDS011;58428;49.478;10.986;2023-07-20T14:28:15;2.67;;;1.30;;
70814;SDS011;58428;49.478;10.986;2023-07-20T14:30:43;2.40;;;1.45;;
70814;SDS011;58428;49.478;10.986;2023-07-20T14:33:09;3.58;;;1.50;;
70814;SDS011;58428;49.478;10.986;2023-07-20T14:35:34;1.75;;;1.13;;
70814;SDS011;58428;49.478;10.986;2023-07-20T14:38:00;2.22;;;1.40;;
70814;SDS011;58428;49.478;10.986;2023-07-20T14:40:26;3.00;;;1.40;;
70814;SDS011;58428;49.478;10.986;2023-07-20T14:42:55;2.78;;;1.38;;
70814;SDS011;58428;49.478;10.986;2023-07-20T14:45:23;2.30;;;1.40;;
70814;SDS011;58428;49.478;10.986;2023-07-20T14:47:49;2.85;;;1.50;;
70814;SDS011;58428;49.478;10.986;2023-07-20T14:50:19;4.07;;;1.58;;
70814;SDS011;58428;49.478;10.986;2023-07-20T14:52:44;2.85;;;1.27;;
70814;SDS011;58428;49.478;10.986;2023-07-20T14:55:10;2.30;;;1.35;;
70814;SDS011;58428;49.478;10.986;2023-07-20T14:57:36;3.45;;;1.50;;
70814;SDS011;58428;49.478;10.986;2023-07-20T15:00:02;2.03;;;1.30;;
70814;SDS011;58428;49.478;10.986;2023-07-20T15:02:32;2.33;;;1.30;;
70814;SDS011;58428;49.478;10.986;2023-07-20T15:04:58;2.75;;;1.33;;
70814;SDS011;58428;49.478;10.986;2023-07-20T15:07:23;2.97;;;1.40;;
70814;SDS011;58428;49.478;10.986;2023-07-20T15:09:49;2.63;;;1.30;;
70814;SDS011;58428;49.478;10.986;2023-07-20T15:12:15;2.72;;;1.50;;
70814;SDS011;58428;49.478;10.986;2023-07-20T15:14:41;22.10;;;15.48;;
70814;SDS011;58428;49.478;10.986;2023-07-20T15:17:08;4.53;;;2.33;;
70814;SDS011;58428;49.478;10.986;2023-07-20T15:19:37;2.78;;;1.80;;
70814;SDS011;58428;49.478;10.986;2023-07-20T15:22:03;3.05;;;1.33;;
70814;SDS011;58428;49.478;10.986;2023-07-20T15:24:31;11.70;;;10.57;;
70814;SDS011;58428;49.478;10.986;2023-07-20T15:26:57;13.45;;;11.07;;
70814;SDS011;58428;49.478;10.986;2023-07-20T15:29:22;71.43;;;43.85;;
70814;SDS011;58428;49.478;10.986;2023-07-20T15:31:50;145.38;;;86.60;;
70814;SDS011;58428;49.478;10.986;2023-07-20T15:34:15;144.07;;;85.35;;
70814;SDS011;58428;49.478;10.986;2023-07-20T15:36:41;39.70;;;26.25;;
70814;SDS011;58428;49.478;10.986;2023-07-20T15:39:09;30.55;;;21.30;;
70814;SDS011;58428;49.478;10.986;2023-07-20T15:41:36;26.83;;;19.23;;
70814;SDS011;58428;49.478;10.986;2023-07-20T15:44:02;14.07;;;9.57;;
70814;SDS011;58428;49.478;10.986;2023-07-20T15:49:07;10.55;;;7.13;;
70814;SDS011;58428;49.478;10.986;2023-07-20T15:51:34;74.00;;;56.83;;
70814;SDS011;58428;49.478;10.986;2023-07-20T15:54:02;14.77;;;10.85;;
70814;SDS011;58428;49.478;10.986;2023-07-20T15:56:32;19.95;;;15.38;;
70814;SDS011;58428;49.478;10.986;2023-07-20T15:58:58;28.77;;;25.60;;
70814;SDS011;58428;49.478;10.986;2023-07-20T16:01:24;17.80;;;15.15;;
70814;SDS011;58428;49.478;10.986;2023-07-20T16:03:51;50.47;;;45.47;;
70814;SDS011;58428;49.478;10.986;2023-07-20T16:06:16;15.45;;;13.70;;
70814;SDS011;58428;49.478;10.986;2023-07-20T16:08:42;15.52;;;13.90;;
70814;SDS011;58428;49.478;10.986;2023-07-20T16:11:08;12.35;;;10.65;;
70814;SDS011;58428;49.478;10.986;2023-07-20T16:13:33;5.28;;;3.70;;
70814;SDS011;58428;49.478;10.986;2023-07-20T16:15:59;26.35;;;23.77;;
70814;SDS011;58428;49.478;10.986;2023-07-20T16:18:25;21.67;;;10.40;;
70814;SDS011;58428;49.478;10.986;2023-07-20T16:20:51;26.90;;;19.85;;
70814;SDS011;58428;49.478;10.986;2023-07-20T16:23:20;28.52;;;20.05;;